GMAD

Al Massira Airport

Agadir, Morocco
METAR GMAD 201900Z 24007KT 210V270 9999 FEW010 20/17 Q1014 NOSIG
Observed Flight Rules
Oct-20 @ 19:00 UTC (32 minutes ago) Visual Flight Rules
Wind Visibility Clouds
240° at 7 knots 10,000+ meters
  • Few at 1,000' AGL
Temperatures Readings
Current 20°C / 68°F
Dewpoint 17°C / 63°F
Humidity 83%
Altimeter 29.94" Hg
Pressure 1014 hPa
Elevation 74
METAR GMAD 201900Z 24007KT 210V270 9999 FEW010 20/17 Q1014 NOSIG
Observed Flight Rules
Oct-20 @ 19:00 UTC
(32 minutes ago)
VFR
Wind Visibility
240° at 7 knots 10,000+ meters
Clouds
  • Few at 1,000' AGL
Temperature Dewpoint
20°C / 68°F 17°C / 63°F
Humidity Altimeter Pressure
83% 29.94" Hg 1014 hPa